Time;durP1;ratioP1;P1;durP2;ratioP2;P2;SDS_P1;SDS_P2;PMS_P1;PMS_P2;Temp;Humidity;BMP_temperature;BMP_pressure;BME280_temperature;BME280_humidity;BME280_pressure;Samples;Min_cycle;Max_cycle;Signal;HPM_P1;HPM_P2
2022/08/20 00:00:45;;;;;;;7.97;4.80;;;;;;;18.80;100.00;101566.31;10334250;28;20117;-64
2022/08/20 00:05:48;;;;;;;4.65;4.20;;;;;;;18.89;100.00;101548.44;10333588;28;20347;-64
2022/08/20 00:10:49;;;;;;;6.72;4.65;;;;;;;19.04;100.00;101547.94;10334175;28;20061;-64
2022/08/20 00:15:50;;;;;;;5.75;3.90;;;;;;;19.13;100.00;101554.75;10301574;28;20030;-64
2022/08/20 00:20:51;;;;;;;9.75;5.07;;;;;;;19.19;100.00;101558.47;10334165;28;20042;-66
2022/08/20 00:25:52;;;;;;;12.00;4.75;;;;;;;19.22;100.00;101563.47;10317390;28;20074;-64
2022/08/20 00:30:52;;;;;;;12.18;4.00;;;;;;;19.24;100.00;101566.78;10315804;28;20165;-64
2022/08/20 00:35:55;;;;;;;8.75;3.55;;;;;;;19.18;100.00;101568.59;10334685;28;20030;-64
2022/08/20 00:40:56;;;;;;;5.93;3.80;;;;;;;19.12;100.00;101558.59;10316399;28;20537;-64
2022/08/20 00:45:58;;;;;;;3.17;2.97;;;;;;;19.04;100.00;101564.41;10316254;28;20370;-65
2022/08/20 00:51:09;;;;;;;10.68;4.35;;;;;;;18.93;100.00;101562.50;10315624;28;20081;-65
2022/08/20 00:56:09;;;;;;;4.13;3.67;;;;;;;18.87;100.00;101564.28;10315995;28;20397;-65
2022/08/20 01:01:10;;;;;;;10.23;4.40;;;;;;;18.70;100.00;101560.53;10315755;28;20030;-64
2022/08/20 01:06:10;;;;;;;13.73;3.83;;;;;;;18.50;100.00;101555.34;10299724;28;20118;-64
2022/08/20 01:11:20;;;;;;;10.00;3.95;;;;;;;18.31;100.00;101552.69;10317290;28;20039;-65
2022/08/20 01:16:24;;;;;;;11.10;4.95;;;;;;;18.12;100.00;101559.25;10318006;28;20038;-66
2022/08/20 01:21:27;;;;;;;5.35;4.22;;;;;;;17.98;100.00;101558.59;10307887;28;20022;-66
2022/08/20 01:26:34;;;;;;;10.55;5.20;;;;;;;17.97;100.00;101564.31;10323722;28;20442;-67
2022/08/20 01:31:36;;;;;;;5.80;4.07;;;;;;;17.91;100.00;101559.75;10309768;28;20449;-65
2022/08/20 01:36:48;;;;;;;11.48;5.35;;;;;;;17.91;100.00;101566.06;10310040;28;20030;-66
2022/08/20 01:41:55;;;;;;;16.90;5.07;;;;;;;17.82;100.00;101562.81;10315598;28;20042;-64
2022/08/20 01:46:56;;;;;;;11.07;4.72;;;;;;;17.72;100.00;101573.44;10338989;28;20365;-64
2022/08/20 01:52:06;;;;;;;4.80;3.78;;;;;;;17.55;100.00;101575.94;10340286;28;20129;-65
2022/08/20 01:57:12;;;;;;;4.40;4.05;;;;;;;17.40;100.00;101589.16;10322723;28;20026;-65
2022/08/20 02:02:13;;;;;;;16.02;5.88;;;;;;;17.22;100.00;101576.28;10337487;28;20430;-65
2022/08/20 02:07:15;;;;;;;10.45;5.05;;;;;;;17.10;100.00;101580.81;10337611;28;20069;-65
2022/08/20 02:12:16;;;;;;;11.02;4.88;;;;;;;16.99;100.00;101587.84;10338316;28;20034;-66
2022/08/20 02:17:17;;;;;;;11.18;5.38;;;;;;;16.90;100.00;101591.91;10337449;28;20031;-65
2022/08/20 02:22:33;;;;;;;8.75;4.90;;;;;;;16.81;100.00;101598.72;10338231;28;20096;-64
2022/08/20 02:27:35;;;;;;;10.98;5.28;;;;;;;16.71;100.00;101593.72;10339727;28;20109;-65
2022/08/20 02:32:40;;;;;;;8.95;6.15;;;;;;;16.60;100.00;101588.97;10337190;28;20343;-64
2022/08/20 02:37:41;;;;;;;14.50;5.75;;;;;;;16.52;100.00;101581.84;10338803;28;20041;-65
2022/08/20 02:42:42;;;;;;;10.82;6.18;;;;;;;16.50;100.00;101590.28;10336787;28;20060;-64
2022/08/20 02:47:44;;;;;;;13.68;5.18;;;;;;;16.40;100.00;101595.41;10321677;28;20121;-65
2022/08/20 02:52:44;;;;;;;6.53;5.88;;;;;;;16.36;100.00;101598.78;10336256;28;20058;-64
2022/08/20 02:57:45;;;;;;;7.40;6.70;;;;;;;16.25;100.00;101589.38;10337507;28;20073;-64
2022/08/20 03:02:45;;;;;;;7.38;6.68;;;;;;;16.20;100.00;101590.03;10336914;28;20034;-65
2022/08/20 03:07:47;;;;;;;10.00;6.35;;;;;;;16.15;100.00;101597.22;10336822;28;20431;-65
2022/08/20 03:12:48;;;;;;;22.10;7.28;;;;;;;16.14;100.00;101598.25;10319424;28;20516;-64
2022/08/20 03:17:48;;;;;;;16.90;7.43;;;;;;;16.07;100.00;101597.44;10335803;28;20026;-64
2022/08/20 03:22:48;;;;;;;6.72;5.85;;;;;;;16.06;100.00;101595.78;10334849;28;20031;-64
2022/08/20 03:27:49;;;;;;;9.77;7.47;;;;;;;16.02;100.00;101587.19;10335632;28;20116;-65
2022/08/20 03:32:49;;;;;;;7.88;7.10;;;;;;;15.96;100.00;101594.34;10335809;28;20030;-65
2022/08/20 03:37:50;;;;;;;9.57;8.43;;;;;;;15.92;100.00;101603.19;10335026;28;20457;-64
2022/08/20 03:42:53;;;;;;;11.85;7.53;;;;;;;15.84;100.00;101600.69;10335752;28;20126;-64
2022/08/20 03:47:54;;;;;;;12.10;6.18;;;;;;;15.79;100.00;101599.47;10317825;28;20023;-64
2022/08/20 03:52:56;;;;;;;7.90;6.22;;;;;;;15.71;100.00;101612.50;10301758;28;20030;-66
2022/08/20 03:57:58;;;;;;;7.88;6.43;;;;;;;15.64;100.00;101601.56;10318211;28;20026;-64
2022/08/20 04:02:59;;;;;;;9.90;7.53;;;;;;;15.65;100.00;101594.22;10288051;28;20022;-65
2022/08/20 04:08:00;;;;;;;10.82;7.57;;;;;;;15.58;100.00;101607.88;10337424;28;20065;-64
2022/08/20 04:13:00;;;;;;;12.35;7.25;;;;;;;15.54;100.00;101610.19;10301544;28;20034;-64
2022/08/20 04:18:06;;;;;;;11.02;7.57;;;;;;;15.49;100.00;101609.16;10335376;28;20401;-65
2022/08/20 04:23:07;;;;;;;10.23;7.63;;;;;;;15.52;100.00;101612.28;10334725;28;20022;-65
2022/08/20 04:28:12;;;;;;;11.30;8.15;;;;;;;15.48;100.00;101619.25;10317655;28;20383;-64
2022/08/20 04:33:12;;;;;;;16.15;8.68;;;;;;;15.41;100.00;101617.56;10334537;28;20034;-64
2022/08/20 04:38:15;;;;;;;10.60;7.00;;;;;;;15.39;100.00;101627.88;10333587;28;20381;-65
2022/08/20 04:43:15;;;;;;;21.45;8.23;;;;;;;15.33;100.00;101627.66;10317181;28;20034;-64
2022/08/20 04:48:15;;;;;;;7.88;6.70;;;;;;;15.32;100.00;101633.31;10316074;28;20046;-65
2022/08/20 04:53:17;;;;;;;8.35;7.03;;;;;;;15.31;100.00;101635.19;10337000;28;20035;-65
2022/08/20 04:58:21;;;;;;;11.85;8.70;;;;;;;15.30;100.00;101649.91;10341501;28;20034;-64
2022/08/20 05:03:21;;;;;;;9.02;7.40;;;;;;;15.30;100.00;101652.63;10341115;28;20049;-65
2022/08/20 05:08:24;;;;;;;15.10;8.82;;;;;;;15.35;100.00;101646.56;10324006;28;20029;-64
2022/08/20 05:13:24;;;;;;;9.88;7.45;;;;;;;15.46;100.00;101654.09;10324492;28;20032;-64
2022/08/20 05:18:25;;;;;;;14.48;7.20;;;;;;;15.57;100.00;101660.78;10323539;28;20053;-63
2022/08/20 05:23:25;;;;;;;17.38;8.52;;;;;;;15.67;100.00;101666.69;10323950;28;20038;-65
2022/08/20 05:28:31;;;;;;;16.67;8.57;;;;;;;15.78;100.00;101668.75;10340991;28;20462;-65
2022/08/20 05:33:32;;;;;;;15.75;8.77;;;;;;;15.89;100.00;101664.56;10323435;28;20030;-65
2022/08/20 05:38:33;;;;;;;13.82;9.07;;;;;;;16.01;100.00;101672.91;10322608;28;20042;-64
2022/08/20 05:43:34;;;;;;;11.77;8.70;;;;;;;16.35;100.00;101674.47;10323298;28;20117;-65
2022/08/20 05:48:34;;;;;;;15.40;11.18;;;;;;;17.70;100.00;101676.91;10322963;28;20026;-64
2022/08/20 05:53:36;;;;;;;21.15;11.57;;;;;;;18.76;100.00;101675.69;10339502;28;20034;-65
2022/08/20 05:58:37;;;;;;;15.82;10.68;;;;;;;19.77;100.00;101686.75;10322129;28;20050;-64
2022/08/20 06:08:57;;;;;;;14.35;9.35;;;;;;;21.64;100.00;101681.56;10324426;28;20462;-64
2022/08/20 06:13:57;;;;;;;10.20;6.53;;;;;;;22.09;100.00;101682.47;10340298;28;20030;-64
2022/08/20 06:18:57;;;;;;;17.88;7.10;;;;;;;22.44;100.00;101677.44;10322947;28;20026;-64
2022/08/20 06:23:58;;;;;;;10.07;6.20;;;;;;;22.80;100.00;101675.06;10339360;28;20033;-65
2022/08/20 06:29:05;;;;;;;6.03;5.47;;;;;;;23.13;100.00;101684.22;10321551;28;20442;-65
2022/08/20 06:34:06;;;;;;;4.13;3.72;;;;;;;23.38;99.68;101673.38;10323594;28;20050;-64
2022/08/20 06:39:07;;;;;;;10.50;4.80;;;;;;;23.71;99.96;101682.50;10338699;28;20077;-65
2022/08/20 06:44:08;;;;;;;6.55;3.67;;;;;;;24.22;100.00;101688.31;10337512;28;20074;-64
2022/08/20 06:49:09;;;;;;;10.38;3.00;;;;;;;24.56;98.60;101690.69;10320133;28;20034;-67
2022/08/20 06:54:09;;;;;;;5.55;4.57;;;;;;;24.86;97.63;101692.72;10320443;28;20042;-67
2022/08/20 06:59:10;;;;;;;3.33;3.05;;;;;;;25.25;96.16;101701.38;10337178;28;20453;-70
2022/08/20 07:04:10;;;;;;;7.97;3.95;;;;;;;25.54;94.76;101698.03;10336256;28;20038;-67
2022/08/20 07:09:10;;;;;;;14.55;4.15;;;;;;;25.90;94.18;101701.59;10336677;28;20469;-67
2022/08/20 07:14:11;;;;;;;5.20;2.53;;;;;;;26.23;92.59;101706.75;10337322;28;20370;-68
2022/08/20 07:19:12;;;;;;;8.52;3.40;;;;;;;26.65;91.75;101703.56;10336307;28;20038;-68
2022/08/20 07:24:12;;;;;;;5.18;2.20;;;;;;;26.98;91.23;101699.19;10318614;28;20382;-69
2022/08/20 07:29:13;;;;;;;11.52;2.83;;;;;;;27.09;88.25;101713.81;10335780;28;20034;-69
2022/08/20 07:34:13;;;;;;;6.72;2.80;;;;;;;27.45;87.22;101713.59;10335137;28;20061;-70
2022/08/20 07:39:14;;;;;;;15.55;3.28;;;;;;;27.74;86.55;101719.97;10318169;28;20498;-71
2022/08/20 07:44:14;;;;;;;10.65;2.97;;;;;;;28.02;88.74;101720.28;10335947;28;20117;-70
2022/08/20 07:49:14;;;;;;;4.30;2.63;;;;;;;28.18;89.06;101720.94;10335828;28;20473;-69
2022/08/20 07:54:15;;;;;;;9.88;2.70;;;;;;;28.54;88.60;101721.34;10317341;28;20546;-65
2022/08/20 07:59:15;;;;;;;3.38;2.28;;;;;;;28.90;87.03;101720.84;10317722;28;20045;-66
2022/08/20 08:04:15;;;;;;;5.50;3.28;;;;;;;28.96;87.42;101717.66;10335713;28;20041;-66
2022/08/20 08:09:16;;;;;;;4.22;3.08;;;;;;;29.31;86.04;101729.44;10334120;28;20031;-66
2022/08/20 08:14:22;;;;;;;7.28;3.25;;;;;;;29.81;83.39;101724.13;10334366;28;20023;-66
2022/08/20 08:19:22;;;;;;;3.03;2.38;;;;;;;29.97;84.90;101743.38;10302180;28;20096;-64
2022/08/20 08:24:22;;;;;;;7.95;3.60;;;;;;;30.29;84.26;101732.16;10316843;28;20050;-65
2022/08/20 08:29:23;;;;;;;3.05;2.83;;;;;;;30.59;83.55;101733.44;10316117;28;20038;-64
2022/08/20 08:34:24;;;;;;;6.28;2.47;;;;;;;30.74;83.84;101714.69;10334154;28;20026;-65
2022/08/20 08:39:24;;;;;;;17.55;3.05;;;;;;;31.04;84.15;101724.34;10333969;28;20058;-65
2022/08/20 08:44:26;;;;;;;12.93;3.15;;;;;;;31.38;79.22;101723.81;10334564;28;20034;-66
2022/08/20 08:49:30;;;;;;;2.22;2.03;;;;;;;30.39;76.73;101722.72;10333769;28;20026;-64
2022/08/20 08:54:30;;;;;;;4.03;2.90;;;;;;;27.71;83.44;101736.44;10300820;28;20068;-65
2022/08/20 08:59:31;;;;;;;10.52;3.15;;;;;;;26.48;86.13;101734.47;10316164;28;20037;-64
2022/08/20 09:04:33;;;;;;;7.57;2.83;;;;;;;25.37;87.39;101744.63;10299674;28;20038;-65
2022/08/20 09:09:35;;;;;;;4.45;2.63;;;;;;;24.62;88.36;101739.44;10299284;28;20054;-64
2022/08/20 09:14:36;;;;;;;5.90;2.53;;;;;;;27.01;80.95;101745.84;10315695;28;20366;-67
2022/08/20 09:19:37;;;;;;;15.75;2.50;;;;;;;28.75;74.13;101744.22;10300916;28;20035;-66
2022/08/20 09:24:37;;;;;;;5.78;2.83;;;;;;;29.79;76.17;101731.97;10332263;28;20030;-68
2022/08/20 09:29:37;;;;;;;4.60;3.25;;;;;;;30.77;66.25;101737.28;10316799;28;20033;-67
2022/08/20 09:34:42;;;;;;;2.58;2.38;;;;;;;30.98;63.66;101728.41;10299544;28;20065;-67
2022/08/20 09:39:42;;;;;;;11.40;2.92;;;;;;;30.26;67.38;101738.34;10319534;28;20462;-68
2022/08/20 09:44:43;;;;;;;2.80;2.17;;;;;;;30.16;68.75;101732.94;10339524;28;20034;-67
2022/08/20 09:49:43;;;;;;;10.18;4.38;;;;;;;28.76;78.28;101737.50;10322304;28;20034;-69
2022/08/20 09:54:44;;;;;;;8.57;2.58;;;;;;;28.64;75.38;101732.34;10339765;28;20034;-68
2022/08/20 09:59:45;;;;;;;2.63;2.42;;;;;;;27.71;76.24;101725.31;10340171;28;20026;-69
2022/08/20 10:04:45;;;;;;;9.52;3.42;;;;;;;27.35;76.82;101731.19;10304999;28;20033;-70
2022/08/20 10:09:46;;;;;;;13.00;3.15;;;;;;;27.64;75.70;101722.03;10321601;28;20037;-70
2022/08/20 10:14:46;;;;;;;3.70;2.58;;;;;;;27.38;77.66;101719.50;10321497;28;20458;-70
2022/08/20 10:19:47;;;;;;;5.00;3.07;;;;;;;27.43;74.71;101715.81;10338175;28;20088;-70
2022/08/20 10:24:47;;;;;;;5.22;2.63;;;;;;;26.87;68.63;101717.88;10340051;28;20272;-65
2022/08/20 10:29:47;;;;;;;2.78;1.85;;;;;;;26.58;74.72;101715.00;10320709;28;20381;-67
2022/08/20 10:34:48;;;;;;;8.88;3.10;;;;;;;26.44;72.02;101722.25;10320724;28;20026;-69
2022/08/20 10:39:48;;;;;;;5.22;1.70;;;;;;;26.44;73.52;101719.47;10338176;28;20047;-68
2022/08/20 10:44:49;;;;;;;6.65;2.10;;;;;;;25.94;74.45;101722.13;10337765;28;20096;-69
2022/08/20 10:49:50;;;;;;;10.95;2.25;;;;;;;25.49;77.49;101715.53;10319169;28;20026;-69
2022/08/20 10:54:50;;;;;;;3.30;2.47;;;;;;;25.35;76.93;101731.03;10319281;28;20038;-69
2022/08/20 10:59:52;;;;;;;3.70;2.00;;;;;;;25.59;77.33;101720.22;10337428;28;20406;-68
2022/08/20 11:04:53;;;;;;;2.55;2.33;;;;;;;25.70;75.96;101708.00;10320180;28;20117;-71
2022/08/20 11:09:53;;;;;;;10.32;2.33;;;;;;;26.15;73.94;101719.28;10336759;28;20030;-69
2022/08/20 11:14:53;;;;;;;7.95;1.83;;;;;;;26.20;75.43;101710.97;10318696;28;20085;-68
2022/08/20 11:19:54;;;;;;;4.63;2.80;;;;;;;26.20;75.00;101725.66;10337392;28;20409;-69
2022/08/20 11:24:55;;;;;;;5.97;2.30;;;;;;;26.31;74.58;101723.69;10304499;28;20034;-69
2022/08/20 11:29:55;;;;;;;3.58;2.55;;;;;;;26.10;73.83;101725.72;10336290;28;20498;-68
2022/08/20 11:34:56;;;;;;;11.52;3.10;;;;;;;26.03;73.58;101719.59;10336230;28;20030;-69
2022/08/20 11:39:56;;;;;;;4.18;1.73;;;;;;;25.39;68.68;101732.13;10336151;28;20054;-69
2022/08/20 11:44:56;;;;;;;3.13;2.38;;;;;;;24.69;73.99;101731.69;10318449;28;20034;-68
2022/08/20 11:50:07;;;;;;;5.05;2.25;;;;;;;24.33;74.58;101750.91;10317570;28;20109;-69
2022/08/20 11:55:09;;;;;;;4.85;2.70;;;;;;;24.72;73.75;101747.78;10334796;28;20081;-68
2022/08/20 12:00:13;;;;;;;5.53;2.95;;;;;;;25.40;69.18;101744.06;10301259;28;20026;-69
2022/08/20 12:05:14;;;;;;;7.68;3.13;;;;;;;26.03;69.44;101738.19;10333835;28;20064;-67
2022/08/20 12:10:14;;;;;;;10.88;2.78;;;;;;;27.06;66.31;101739.44;10317010;28;20062;-68
2022/08/20 12:15:14;;;;;;;5.38;2.60;;;;;;;27.43;65.14;101732.50;10316909;28;20146;-69
2022/08/20 12:20:15;;;;;;;7.05;2.90;;;;;;;28.02;64.58;101728.66;10333392;28;20105;-69
2022/08/20 12:25:15;;;;;;;4.07;2.33;;;;;;;26.86;67.21;101726.50;10316981;28;20038;-68
2022/08/20 12:30:19;;;;;;;3.50;2.45;;;;;;;26.36;69.64;101742.28;10334007;28;20026;-68
2022/08/20 12:35:19;;;;;;;13.27;2.35;;;;;;;27.30;70.13;101745.13;10317487;28;20114;-69
2022/08/20 12:40:22;;;;;;;2.63;2.15;;;;;;;27.54;67.10;101748.00;10316847;28;20046;-68
2022/08/20 12:45:22;;;;;;;6.70;2.85;;;;;;;26.39;71.97;101750.88;10317498;28;20030;-68
2022/08/20 12:50:23;;;;;;;3.10;2.10;;;;;;;25.56;73.25;101751.28;10333645;28;20034;-67
2022/08/20 12:55:23;;;;;;;3.90;2.80;;;;;;;25.15;72.45;101767.88;10300606;28;20422;-68
2022/08/20 13:00:27;;;;;;;4.22;3.28;;;;;;;25.70;72.72;101765.41;10284179;28;20030;-70
2022/08/20 13:05:27;;;;;;;7.95;2.45;;;;;;;25.10;70.51;101773.38;10316240;28;20077;-70
2022/08/20 13:10:29;;;;;;;2.85;2.45;;;;;;;25.00;71.15;101762.28;10332646;28;20521;-68
2022/08/20 13:15:30;;;;;;;7.72;2.90;;;;;;;24.84;69.28;101766.94;10306458;28;20032;-68
2022/08/20 13:20:31;;;;;;;3.55;2.38;;;;;;;25.16;71.31;101772.31;10323857;28;20046;-69
2022/08/20 13:25:31;;;;;;;6.10;2.40;;;;;;;24.67;71.78;101778.25;10307474;28;20038;-68
2022/08/20 13:30:33;;;;;;;3.08;1.92;;;;;;;24.09;70.79;101766.28;10340160;28;20026;-67
2022/08/20 13:35:33;;;;;;;2.60;2.20;;;;;;;24.21;72.07;101766.91;10339965;28;20037;-68
2022/08/20 13:40:34;;;;;;;2.55;2.00;;;;;;;24.15;74.46;101767.97;10340734;28;20058;-68
2022/08/20 13:45:37;;;;;;;11.40;2.58;;;;;;;24.50;73.18;101767.34;10322781;28;20030;-69
2022/08/20 13:50:37;;;;;;;4.10;2.10;;;;;;;24.35;71.76;101764.50;10322619;28;20019;-67
2022/08/20 13:55:38;;;;;;;6.93;2.97;;;;;;;25.52;69.78;101759.31;10339166;28;20485;-68
2022/08/20 14:00:38;;;;;;;3.20;2.45;;;;;;;26.55;65.20;101742.50;10339913;28;20030;-70
2022/08/20 14:05:39;;;;;;;2.55;2.22;;;;;;;26.78;66.04;101752.13;10339432;28;20425;-68
2022/08/20 14:10:39;;;;;;;11.82;3.20;;;;;;;27.21;67.49;101749.66;10321599;28;20034;-69
2022/08/20 14:15:40;;;;;;;9.20;3.67;;;;;;;27.46;67.82;101755.00;10321606;28;20121;-70
2022/08/20 14:20:40;;;;;;;11.70;1.92;;;;;;;27.46;68.26;101756.97;10322418;28;20038;-70
2022/08/20 14:25:44;;;;;;;1.58;1.48;;;;;;;27.37;61.77;101751.19;10320252;28;20034;-67
2022/08/20 14:30:44;;;;;;;4.75;1.75;;;;;;;27.61;65.19;101745.72;10305313;28;20454;-68
2022/08/20 14:35:45;;;;;;;4.10;2.40;;;;;;;26.62;63.73;101752.19;10338239;28;20022;-68
2022/08/20 14:40:46;;;;;;;3.63;2.37;;;;;;;26.33;68.24;101745.63;10320590;28;20069;-66
2022/08/20 14:45:46;;;;;;;5.70;2.60;;;;;;;26.61;67.63;101742.22;10339322;28;20273;-65
2022/08/20 14:50:46;;;;;;;3.25;2.40;;;;;;;26.93;69.02;101742.84;10338624;28;20026;-66
2022/08/20 14:55:47;;;;;;;5.68;2.00;;;;;;;26.50;65.00;101729.47;10303736;28;20359;-65
2022/08/20 15:00:47;;;;;;;2.55;2.33;;;;;;;25.74;65.30;101734.06;10336369;28;20030;-65
2022/08/20 15:05:48;;;;;;;5.10;2.67;;;;;;;25.51;66.02;101741.00;10336809;28;20077;-65
2022/08/20 15:10:48;;;;;;;4.07;2.53;;;;;;;25.36;68.23;101727.13;10336713;28;20092;-65
2022/08/20 15:15:48;;;;;;;3.17;2.17;;;;;;;25.00;66.55;101737.34;10336328;28;20531;-65
2022/08/20 15:20:49;;;;;;;2.70;2.33;;;;;;;24.14;65.26;101741.41;10318742;28;20128;-64
2022/08/20 15:25:49;;;;;;;5.25;2.08;;;;;;;23.48;65.29;101725.16;10320256;28;20042;-65
2022/08/20 15:30:50;;;;;;;2.17;1.73;;;;;;;23.28;67.63;101731.34;10336827;28;20030;-65
2022/08/20 15:35:50;;;;;;;3.10;1.95;;;;;;;23.02;68.01;101737.72;10335981;28;20058;-65
2022/08/20 15:40:50;;;;;;;3.13;2.83;;;;;;;22.90;66.79;101735.91;10336577;28;20065;-64
2022/08/20 15:45:52;;;;;;;2.22;1.92;;;;;;;22.70;64.81;101746.75;10301645;28;20038;-65
2022/08/20 15:50:59;;;;;;;3.33;2.00;;;;;;;22.43;66.69;101736.47;10318191;28;20030;-65
2022/08/20 15:56:29;;;;;;;3.78;2.63;;;;;;;22.22;65.57;101742.81;10335705;28;20026;-65
2022/08/20 16:01:39;;;;;;;5.28;2.83;;;;;;;22.03;65.65;101743.06;10321044;28;20033;-66
2022/08/20 16:06:39;;;;;;;6.00;2.72;;;;;;;21.85;66.73;101729.56;10337201;28;20041;-67
2022/08/20 16:12:10;;;;;;;13.52;2.30;;;;;;;21.78;66.45;101739.94;10322421;28;20026;-66
2022/08/20 16:17:14;;;;;;;3.17;2.25;;;;;;;21.64;66.73;101730.34;10308988;28;20050;-66
2022/08/20 16:22:15;;;;;;;1.88;1.73;;;;;;;21.46;65.81;101729.50;10318038;28;20074;-65
2022/08/20 16:27:23;;;;;;;5.10;2.97;;;;;;;21.42;66.92;101730.25;10301774;28;20113;-65
2022/08/20 16:32:31;;;;;;;3.30;2.30;;;;;;;21.27;68.31;101739.88;10316511;28;20110;-66
2022/08/20 16:37:47;;;;;;;8.38;2.67;;;;;;;21.20;67.33;101741.16;10316894;28;20058;-65
2022/08/20 16:42:50;;;;;;;2.35;2.15;;;;;;;21.20;67.72;101741.97;10337075;28;20042;-66
2022/08/20 16:47:50;;;;;;;3.33;2.33;;;;;;;21.19;68.43;101733.97;10317620;28;20022;-65
2022/08/20 16:52:51;;;;;;;3.95;2.25;;;;;;;21.18;68.50;101746.06;10325187;28;20022;-64
2022/08/20 16:57:52;;;;;;;3.08;2.35;;;;;;;21.09;69.63;101732.69;10324243;28;20042;-66
2022/08/20 17:02:56;;;;;;;5.93;3.47;;;;;;;20.98;70.27;101741.84;10324799;28;20057;-65
2022/08/20 17:08:02;;;;;;;9.60;2.92;;;;;;;20.88;70.46;101736.16;10341272;28;20026;-65
2022/08/20 17:13:15;;;;;;;3.67;3.17;;;;;;;20.75;71.11;101751.03;10292371;28;20450;-65
2022/08/20 17:18:27;;;;;;;5.97;2.30;;;;;;;20.67;71.92;101732.97;10340923;28;20053;-66
2022/08/20 17:23:28;;;;;;;11.27;4.53;;;;;;;20.59;72.74;101716.88;10340884;28;20026;-65
2022/08/20 17:28:28;;;;;;;6.95;3.92;;;;;;;20.61;72.71;101711.09;10306179;28;20553;-65
2022/08/20 17:33:32;;;;;;;11.88;2.47;;;;;;;20.52;73.09;101721.69;10306921;28;20030;-66
2022/08/20 17:38:46;;;;;;;8.15;2.55;;;;;;;20.41;73.23;101730.75;10322819;28;20058;-65
2022/08/20 17:43:57;;;;;;;4.45;1.85;;;;;;;20.31;74.16;101725.88;10340670;28;20508;-66
2022/08/20 17:48:58;;;;;;;6.10;2.60;;;;;;;20.17;74.89;101722.56;10306617;28;20450;-65
2022/08/20 17:54:04;;;;;;;4.57;3.08;;;;;;;20.14;74.59;101731.28;10323076;28;20037;-66
2022/08/20 17:59:08;;;;;;;12.07;4.80;;;;;;;20.05;75.22;101719.00;10339009;28;20045;-65
2022/08/20 18:04:09;;;;;;;5.63;2.28;;;;;;;19.93;75.62;101729.16;10338926;28;20268;-65
2022/08/20 18:09:28;;;;;;;5.70;2.03;;;;;;;19.80;76.18;101730.22;10340219;28;20037;-66
2022/08/20 18:14:51;;;;;;;8.85;2.42;;;;;;;19.71;75.86;101729.75;10339027;28;20032;-65
2022/08/20 18:20:03;;;;;;;5.15;2.90;;;;;;;19.62;75.91;101744.03;10293304;28;20042;-67
2022/08/20 18:25:36;;;;;;;6.95;4.18;;;;;;;19.56;75.70;101740.34;10307143;28;20109;-65
2022/08/20 18:30:46;;;;;;;5.28;2.53;;;;;;;19.48;76.02;101746.19;10303062;28;20038;-65
2022/08/20 18:35:46;;;;;;;6.57;2.90;;;;;;;19.41;75.99;101743.56;10327086;28;20026;-66
2022/08/20 18:40:46;;;;;;;4.13;2.42;;;;;;;19.29;77.07;101745.44;10328761;28;20065;-65
2022/08/20 18:45:47;;;;;;;5.32;2.35;;;;;;;19.19;77.26;101729.53;10345619;28;20085;-65
2022/08/20 18:50:49;;;;;;;6.88;2.22;;;;;;;19.04;77.05;101727.19;10337009;28;20061;-65
2022/08/20 18:56:07;;;;;;;6.85;2.00;;;;;;;18.84;77.17;101734.06;10338054;28;20034;-65
2022/08/20 19:01:11;;;;;;;26.33;19.40;;;;;;;18.68;77.80;101730.03;10304370;28;20034;-66
2022/08/20 19:06:15;;;;;;;11.57;8.10;;;;;;;18.57;78.09;101728.91;10303627;28;20030;-65
2022/08/20 19:11:52;;;;;;;12.57;6.82;;;;;;;18.47;78.11;101723.09;10318867;28;20458;-65
2022/08/20 19:17:07;;;;;;;5.18;4.10;;;;;;;18.33;78.43;101731.50;10336406;28;20451;-66
2022/08/20 19:22:08;;;;;;;9.02;5.15;;;;;;;18.22;78.56;101729.53;10320005;28;20029;-65
2022/08/20 19:27:09;;;;;;;4.45;2.55;;;;;;;18.09;79.30;101724.16;10286586;28;20030;-64
2022/08/20 19:32:22;;;;;;;14.70;7.53;;;;;;;18.00;79.57;101711.84;10318996;28;20514;-67
2022/08/20 19:37:28;;;;;;;10.40;3.75;;;;;;;17.97;79.35;101726.84;10318500;28;20054;-65
2022/08/20 19:42:30;;;;;;;3.58;2.90;;;;;;;17.88;80.14;101739.16;10336960;28;20462;-66
2022/08/20 19:47:43;;;;;;;7.57;3.08;;;;;;;17.82;80.22;101742.78;10335721;28;20023;-66
2022/08/20 19:53:00;;;;;;;3.22;2.13;;;;;;;17.80;80.95;101726.56;10302815;28;20023;-66
2022/08/20 19:58:20;;;;;;;11.95;3.15;;;;;;;17.78;81.37;101734.19;10335412;28;20409;-65
2022/08/20 20:03:26;;;;;;;3.35;3.05;;;;;;;17.63;81.26;101723.53;10304732;28;20585;-66
2022/08/20 20:08:28;;;;;;;5.65;2.80;;;;;;;17.57;81.71;101720.84;10303085;28;20033;-65
2022/08/20 20:13:30;;;;;;;8.45;3.45;;;;;;;17.54;81.93;101726.78;10318808;28;20042;-66
2022/08/20 20:18:33;;;;;;;10.65;4.03;;;;;;;17.47;81.76;101726.00;10317714;28;20037;-65
2022/08/20 20:23:33;;;;;;;22.73;5.03;;;;;;;17.38;82.15;101730.91;10301216;28;20454;-65
2022/08/20 20:28:48;;;;;;;17.92;7.95;;;;;;;17.29;82.86;101721.28;10335272;28;20026;-66
2022/08/20 20:33:52;;;;;;;13.77;8.32;;;;;;;17.21;82.74;101711.47;10302341;28;20358;-65
2022/08/20 20:38:57;;;;;;;14.23;7.60;;;;;;;17.12;82.97;101721.84;10300734;28;20054;-66
2022/08/20 20:44:17;;;;;;;7.75;4.70;;;;;;;17.04;83.36;101713.03;10335839;28;20570;-62
2022/08/20 20:49:25;;;;;;;10.52;4.75;;;;;;;17.01;83.52;101706.13;10301296;28;20089;-63
2022/08/20 20:54:44;;;;;;;7.35;3.88;;;;;;;16.98;83.79;101706.56;10335272;28;20109;-64
2022/08/20 20:59:47;;;;;;;4.72;4.18;;;;;;;16.94;84.32;101695.25;10302101;28;20038;-64
2022/08/20 21:04:48;;;;;;;7.07;2.55;;;;;;;16.95;84.58;101709.75;10286346;28;20069;-63
2022/08/20 21:09:50;;;;;;;4.03;2.83;;;;;;;16.92;84.97;101701.97;10303763;28;20039;-64
2022/08/20 21:14:51;;;;;;;7.15;4.20;;;;;;;16.87;85.12;101710.84;10335195;28;20070;-63
2022/08/20 21:19:52;;;;;;;4.70;2.80;;;;;;;16.89;86.65;101703.25;10316053;28;20051;-63
2022/08/20 21:24:52;;;;;;;8.02;3.95;;;;;;;16.98;86.76;101712.03;10300108;28;20038;-65
2022/08/20 21:29:53;;;;;;;12.05;5.20;;;;;;;16.93;86.09;101700.91;10314851;28;20030;-63
2022/08/20 21:34:54;;;;;;;2.30;2.03;;;;;;;17.00;86.57;101709.91;10335705;28;20041;-63
2022/08/20 21:39:54;;;;;;;11.48;3.80;;;;;;;17.00;87.01;101703.59;10340443;28;20081;-63
2022/08/20 21:44:54;;;;;;;5.50;3.08;;;;;;;16.98;87.73;101695.63;10339541;28;20092;-63
2022/08/20 21:49:55;;;;;;;6.68;2.88;;;;;;;17.02;88.53;101707.81;10339832;28;20073;-63
2022/08/20 21:54:55;;;;;;;6.47;3.30;;;;;;;17.01;88.10;101694.34;10340779;28;20371;-64
2022/08/20 21:59:56;;;;;;;7.88;4.07;;;;;;;16.96;88.52;101698.56;10339480;28;20043;-62
2022/08/20 22:04:56;;;;;;;9.77;3.45;;;;;;;16.93;88.22;101693.53;10339860;28;20434;-64
2022/08/20 22:09:57;;;;;;;9.68;4.45;;;;;;;17.01;89.73;101697.09;10338447;28;20486;-63
2022/08/20 22:14:57;;;;;;;9.77;4.68;;;;;;;17.03;90.41;101689.47;10338950;28;20042;-63
2022/08/20 22:19:57;;;;;;;8.50;3.55;;;;;;;16.99;89.84;101678.16;10338770;28;20038;-63
2022/08/20 22:24:58;;;;;;;6.07;3.67;;;;;;;16.99;90.12;101688.25;10338793;28;20454;-64
2022/08/20 22:29:58;;;;;;;7.70;3.50;;;;;;;17.01;91.47;101697.09;10321570;28;20355;-63
2022/08/20 22:34:58;;;;;;;9.48;4.70;;;;;;;16.99;91.69;101689.09;10337419;28;20034;-63
2022/08/20 22:39:59;;;;;;;13.68;5.80;;;;;;;16.98;92.15;101686.59;10337573;28;20073;-63
2022/08/20 22:44:59;;;;;;;5.10;3.80;;;;;;;16.93;92.07;101689.97;10320662;28;20070;-63
2022/08/20 22:50:00;;;;;;;7.35;3.25;;;;;;;16.91;92.92;101684.72;10337258;28;20038;-64
2022/08/20 22:55:00;;;;;;;9.07;4.38;;;;;;;16.82;91.69;101682.47;10319558;28;20113;-63
2022/08/20 23:00:01;;;;;;;6.75;2.70;;;;;;;16.80;91.64;101685.41;10319097;28;20057;-63
2022/08/20 23:05:01;;;;;;;11.27;4.43;;;;;;;16.72;91.72;101681.03;10336498;28;20072;-66